首页
METAR-TAF:

METAR-TAF

机场 :

温斯伯勒, 南卡罗来纳州, 美国

纬度: 34-18-56N, 经度: 081-06-32W, 海拔: 176米

当前天气观测

该预报发布于15分钟前的21:55 UTC
风速7节,风向西南
温度 16°C
湿度 72%
气压 1010 hPa
能見度: 16.1公里
散云层高于2800英尺
多云层高于4400英尺
阴天层高于6000英尺

METAR: KFDW 152155Z AUTO 22007KT 10SM SCT028 BKN044 OVC060 16/11 A2983 RMK AO1

时间: 17:10 (22:10 UTC)


TAF: 丢失

超过4000个机场的气象观测和天气预报(METAR&TAF报告)。

可查询的气象台以黄色和红色小点在地图上表示。

将鼠标移到小点上方,可查看气象台名称。

然后点击查看天气观测和预报。

如需切换地图:点击带黑十字的绿色按钮放大地图;点击带横线的绿色按钮缩小地图;或者点击绿色箭头查看邻近地区的地图。


METAR-TAF: